createdAt,value
2023-03-25T00:00:39.876Z,53.20
2023-03-25T00:01:43.606Z,53.28
2023-03-25T00:02:48.711Z,53.36
2023-03-25T00:03:53.377Z,53.31
2023-03-25T00:04:55.736Z,53.12
2023-03-25T00:05:59.092Z,53.27
2023-03-25T00:07:01.579Z,53.37
2023-03-25T00:08:04.270Z,53.29
2023-03-25T00:09:06.670Z,53.16
2023-03-25T00:10:10.066Z,53.25
2023-03-25T00:11:12.373Z,53.23
2023-03-25T00:12:18.869Z,53.17
2023-03-25T00:13:23.719Z,53.09
2023-03-25T00:14:26.399Z,53.22
2023-03-25T00:15:30.330Z,53.17
2023-03-25T00:16:33.569Z,53.10
2023-03-25T00:17:37.225Z,52.97
2023-03-25T00:18:40.613Z,53.18
2023-03-25T00:19:43.854Z,53.01
2023-03-25T00:20:49.827Z,53.00
2023-03-25T00:21:52.334Z,53.16
2023-03-25T00:22:55.246Z,53.05
2023-03-25T00:23:58.676Z,53.17
2023-03-25T00:25:01.204Z,53.08
2023-03-25T00:26:04.135Z,52.83
2023-03-25T00:27:06.452Z,53.08
2023-03-25T00:28:08.782Z,52.90
2023-03-25T00:29:11.878Z,52.91
2023-03-25T00:30:15.891Z,52.96
2023-03-25T00:31:18.254Z,53.05
2023-03-25T00:32:21.549Z,53.00
2023-03-25T00:33:23.849Z,52.96
2023-03-25T00:34:26.381Z,52.96
2023-03-25T00:35:29.294Z,52.98
2023-03-25T00:36:31.667Z,53.05
2023-03-25T00:37:34.567Z,53.04
2023-03-25T00:38:38.384Z,53.15
2023-03-25T00:39:40.788Z,53.12
2023-03-25T00:40:44.236Z,53.05
2023-03-25T00:41:48.506Z,52.86
2023-03-25T00:42:51.045Z,53.04
2023-03-25T00:43:58.382Z,53.14
2023-03-25T00:45:02.363Z,52.81
2023-03-25T00:46:05.183Z,53.00
2023-03-25T00:47:07.560Z,52.93
2023-03-25T00:48:10.681Z,53.03
2023-03-25T00:49:12.988Z,52.98
2023-03-25T00:50:15.558Z,53.01
2023-03-25T00:51:19.688Z,53.21
2023-03-25T00:52:23.281Z,52.93
2023-03-25T00:53:26.053Z,53.00
2023-03-25T00:54:28.327Z,52.93
2023-03-25T00:55:31.106Z,52.94
2023-03-25T00:56:33.617Z,53.25
2023-03-25T00:57:36.944Z,53.28
2023-03-25T00:58:40.284Z,53.08
2023-03-25T00:59:42.877Z,53.12
2023-03-25T01:00:45.588Z,53.42
2023-03-25T01:01:49.073Z,53.28
2023-03-25T01:02:54.346Z,53.17
2023-03-25T01:03:58.187Z,53.54
2023-03-25T01:05:01.914Z,53.21
2023-03-25T01:06:04.885Z,53.45
2023-03-25T01:07:08.193Z,53.23
2023-03-25T01:08:15.191Z,53.11
2023-03-25T01:09:19.513Z,53.30
2023-03-25T01:10:22.737Z,53.34
2023-03-25T01:11:30.399Z,53.43
2023-03-25T01:12:33.188Z,53.11
2023-03-25T01:13:35.592Z,53.38
2023-03-25T01:14:38.161Z,53.40
2023-03-25T01:15:41.199Z,53.55
2023-03-25T01:16:45.847Z,53.30
2023-03-25T01:17:48.374Z,53.41
2023-03-25T01:18:50.654Z,53.55
2023-03-25T01:19:53.655Z,53.27
2023-03-25T01:20:56.525Z,53.51
2023-03-25T01:21:58.876Z,53.21
2023-03-25T01:23:01.259Z,53.38
2023-03-25T01:24:08.022Z,53.58
2023-03-25T01:25:11.896Z,53.55
2023-03-25T01:26:14.425Z,53.50
2023-03-25T01:27:17.879Z,53.56
2023-03-25T01:28:20.946Z,53.39
2023-03-25T01:29:23.457Z,53.46
2023-03-25T01:30:27.536Z,53.54
2023-03-25T01:31:30.745Z,53.68
2023-03-25T01:32:33.179Z,53.63
2023-03-25T01:33:36.722Z,53.57
2023-03-25T01:34:38.968Z,53.68
2023-03-25T01:35:41.535Z,53.84
2023-03-25T01:36:46.908Z,53.84
2023-03-25T01:37:54.062Z,53.80
2023-03-25T01:39:01.683Z,53.90
2023-03-25T01:40:10.523Z,53.87
2023-03-25T01:41:12.778Z,53.78
2023-03-25T01:42:15.697Z,53.75
2023-03-25T01:43:18.517Z,53.88
2023-03-25T01:44:24.338Z,53.87
2023-03-25T01:45:29.476Z,53.92
2023-03-25T01:46:31.751Z,53.83
2023-03-25T01:47:34.258Z,54.09
2023-03-25T01:48:44.104Z,53.79
2023-03-25T01:49:46.967Z,54.07
2023-03-25T01:50:58.569Z,54.25
2023-03-25T01:52:30.598Z,54.20
2023-03-25T01:53:34.000Z,54.00
2023-03-25T01:54:39.044Z,53.96
2023-03-25T01:55:41.495Z,53.92
2023-03-25T01:56:47.377Z,54.06
2023-03-25T01:57:54.599Z,54.18
2023-03-25T01:58:59.017Z,54.15
2023-03-25T02:00:02.094Z,54.27
2023-03-25T02:01:21.928Z,54.25
2023-03-25T02:02:38.702Z,54.07
2023-03-25T02:03:46.513Z,53.99
2023-03-25T02:05:02.231Z,53.91
2023-03-25T02:06:11.310Z,54.02
2023-03-25T02:07:16.841Z,54.19
2023-03-25T02:08:20.997Z,54.21
2023-03-25T02:09:27.775Z,54.00
2023-03-25T02:10:30.659Z,54.21
2023-03-25T02:11:33.886Z,54.18
2023-03-25T02:12:36.370Z,54.02
2023-03-25T02:13:41.013Z,54.23
2023-03-25T02:14:43.330Z,54.04
2023-03-25T02:16:21.685Z,54.02
2023-03-25T02:18:02.178Z,54.02
2023-03-25T02:19:33.259Z,54.22
2023-03-25T02:20:55.435Z,54.11
2023-03-25T02:21:57.794Z,54.03
2023-03-25T02:23:14.258Z,54.05
2023-03-25T02:24:54.305Z,54.17
2023-03-25T02:26:33.101Z,54.15
2023-03-25T02:27:46.255Z,54.15
2023-03-25T02:29:07.440Z,54.08
2023-03-25T02:30:19.387Z,54.06
2023-03-25T02:31:34.525Z,53.94
2023-03-25T02:32:40.616Z,54.11
2023-03-25T02:34:11.394Z,54.00
2023-03-25T02:36:04.123Z,53.99
2023-03-25T02:37:26.742Z,54.10
2023-03-25T02:38:42.116Z,53.98
2023-03-25T02:39:54.163Z,54.12
2023-03-25T02:41:04.125Z,54.09
2023-03-25T02:42:40.598Z,53.78
2023-03-25T02:43:51.589Z,53.88
2023-03-25T02:45:06.300Z,53.73
2023-03-25T02:46:16.163Z,53.61
2023-03-25T02:47:22.786Z,53.64
2023-03-25T02:48:35.955Z,53.84
2023-03-25T02:49:48.501Z,53.76
2023-03-25T02:50:57.964Z,53.84
2023-03-25T02:52:08.549Z,53.80
2023-03-25T02:53:18.111Z,54.01
2023-03-25T02:54:22.143Z,53.86
2023-03-25T02:55:30.845Z,54.11
2023-03-25T02:56:33.777Z,53.87
2023-03-25T02:57:40.608Z,53.96
2023-03-25T02:58:46.206Z,53.90
2023-03-25T02:59:50.929Z,53.82
2023-03-25T03:00:54.154Z,54.07
2023-03-25T03:01:58.804Z,54.11
2023-03-25T03:03:04.134Z,54.09
2023-03-25T03:04:07.959Z,54.15
2023-03-25T03:05:26.794Z,54.05
2023-03-25T03:06:29.416Z,54.16
2023-03-25T03:07:41.779Z,54.15
2023-03-25T03:08:50.837Z,54.08
2023-03-25T03:10:20.010Z,54.23
2023-03-25T03:11:54.279Z,54.32
2023-03-25T03:13:17.324Z,54.19
2023-03-25T03:14:46.718Z,54.17
2023-03-25T03:16:07.902Z,54.19
2023-03-25T03:17:18.607Z,53.99
2023-03-25T03:18:58.909Z,53.96
2023-03-25T03:20:13.119Z,54.07
2023-03-25T03:21:31.512Z,54.11
2023-03-25T03:22:44.113Z,53.91
2023-03-25T03:24:02.835Z,54.09
2023-03-25T03:25:11.354Z,54.04
2023-03-25T03:26:26.691Z,53.88
2023-03-25T03:27:34.841Z,53.84
2023-03-25T03:29:05.731Z,53.76
2023-03-25T03:30:32.805Z,54.04
2023-03-25T03:32:06.979Z,53.91
2023-03-25T03:33:22.031Z,53.87
2023-03-25T03:34:34.740Z,53.55
2023-03-25T03:35:43.347Z,53.59
2023-03-25T03:36:50.762Z,53.68
2023-03-25T03:37:59.740Z,53.73
2023-03-25T03:39:09.795Z,53.79
2023-03-25T03:40:19.992Z,53.58
2023-03-25T03:41:27.295Z,53.53
2023-03-25T03:42:55.879Z,53.42
2023-03-25T03:44:03.545Z,53.55
2023-03-25T03:45:11.635Z,53.54
2023-03-25T03:46:21.090Z,53.33
2023-03-25T03:47:30.813Z,53.28
2023-03-25T03:48:47.697Z,53.50
2023-03-25T03:50:15.637Z,53.34
2023-03-25T03:51:38.614Z,53.31
2023-03-25T03:52:47.115Z,53.23
2023-03-25T03:53:55.007Z,53.33
2023-03-25T03:55:02.074Z,53.16
2023-03-25T03:56:23.722Z,53.61
2023-03-25T03:58:01.479Z,53.44
2023-03-25T03:59:13.445Z,53.34
2023-03-25T04:00:26.047Z,53.29
2023-03-25T04:01:46.487Z,53.14
2023-03-25T04:02:56.071Z,53.30
2023-03-25T04:04:07.913Z,53.07
2023-03-25T04:05:13.795Z,53.07
2023-03-25T04:06:24.799Z,53.12
2023-03-25T04:07:43.877Z,53.23
2023-03-25T04:08:59.613Z,53.11
2023-03-25T04:10:17.515Z,53.43
2023-03-25T04:11:24.910Z,53.42
2023-03-25T04:12:31.346Z,53.36
2023-03-25T04:13:39.725Z,53.37
2023-03-25T04:14:42.942Z,53.34
2023-03-25T04:15:45.276Z,53.24
2023-03-25T04:16:47.875Z,53.27
2023-03-25T04:17:50.553Z,53.18
2023-03-25T04:18:53.902Z,53.33
2023-03-25T04:19:57.073Z,53.30
2023-03-25T04:21:01.220Z,53.36
2023-03-25T04:22:05.727Z,53.34
2023-03-25T04:23:10.071Z,53.36
2023-03-25T04:24:17.050Z,53.47
2023-03-25T04:25:22.289Z,53.21
2023-03-25T04:26:24.896Z,53.36
2023-03-25T04:27:30.055Z,53.09
2023-03-25T04:28:32.799Z,53.30
2023-03-25T04:29:35.448Z,53.34
2023-03-25T04:30:37.743Z,53.47
2023-03-25T04:31:46.350Z,53.43
2023-03-25T04:32:49.155Z,53.47
2023-03-25T04:33:52.153Z,53.51
2023-03-25T04:34:59.888Z,53.27
2023-03-25T04:36:02.359Z,53.26
2023-03-25T04:37:04.801Z,53.27
2023-03-25T04:38:08.202Z,53.28
2023-03-25T04:39:12.099Z,53.23
2023-03-25T04:40:18.986Z,53.34
2023-03-25T04:41:22.835Z,53.28
2023-03-25T04:42:33.243Z,53.30
2023-03-25T04:43:36.281Z,53.33
2023-03-25T04:44:39.401Z,53.22
2023-03-25T04:45:49.982Z,53.60
2023-03-25T04:46:53.037Z,53.41
2023-03-25T04:47:55.527Z,53.60
2023-03-25T04:48:58.553Z,53.26
2023-03-25T04:50:02.082Z,53.38
2023-03-25T04:51:04.821Z,53.35
2023-03-25T04:52:09.527Z,53.39
2023-03-25T04:53:11.853Z,53.22
2023-03-25T04:54:16.437Z,53.20
2023-03-25T04:55:24.094Z,53.09
2023-03-25T04:56:26.907Z,53.25
2023-03-25T04:57:31.564Z,53.24
2023-03-25T04:58:34.066Z,53.37
2023-03-25T04:59:37.126Z,53.24
2023-03-25T05:00:39.564Z,53.07
2023-03-25T05:01:42.628Z,53.22
2023-03-25T05:02:46.904Z,53.14
2023-03-25T05:03:50.497Z,53.14
2023-03-25T05:04:55.340Z,52.95
2023-03-25T05:05:59.000Z,53.07
2023-03-25T05:07:01.331Z,53.06
2023-03-25T05:08:04.239Z,53.10
2023-03-25T05:09:09.271Z,53.07
2023-03-25T05:10:12.880Z,53.01
2023-03-25T05:11:15.195Z,53.05
2023-03-25T05:12:17.467Z,52.92
2023-03-25T05:13:21.086Z,52.73
2023-03-25T05:14:23.405Z,52.77
2023-03-25T05:15:28.636Z,52.75
2023-03-25T05:16:31.115Z,52.83
2023-03-25T05:17:33.593Z,52.92
2023-03-25T05:18:35.992Z,52.82
2023-03-25T05:19:38.284Z,52.70
2023-03-25T05:20:42.981Z,52.45
2023-03-25T05:21:45.997Z,52.66
2023-03-25T05:22:48.311Z,52.64
2023-03-25T05:23:51.848Z,52.46
2023-03-25T05:24:54.564Z,52.63
2023-03-25T05:25:56.829Z,52.39
2023-03-25T05:27:02.644Z,52.30
2023-03-25T05:28:10.116Z,52.51
2023-03-25T05:29:15.055Z,52.64
2023-03-25T05:30:17.613Z,52.51
2023-03-25T05:31:20.033Z,52.45
2023-03-25T05:32:22.802Z,52.32
2023-03-25T05:33:25.688Z,52.34
2023-03-25T05:34:30.146Z,52.17
2023-03-25T05:35:32.645Z,52.17
2023-03-25T05:36:35.900Z,52.03
2023-03-25T05:37:38.271Z,51.86
2023-03-25T05:38:44.566Z,52.04
2023-03-25T05:39:46.935Z,52.08
2023-03-25T05:40:49.420Z,52.00
2023-03-25T05:41:55.923Z,51.78
2023-03-25T05:42:58.256Z,51.70
2023-03-25T05:44:03.165Z,51.71
2023-03-25T05:45:05.875Z,51.54
2023-03-25T05:46:09.346Z,51.46
2023-03-25T05:47:12.329Z,51.53
2023-03-25T05:48:15.086Z,51.43
2023-03-25T05:49:18.122Z,51.46
2023-03-25T05:50:21.861Z,51.03
2023-03-25T05:51:26.572Z,51.28
2023-03-25T05:52:29.860Z,50.92
2023-03-25T05:53:33.635Z,50.87
2023-03-25T05:54:42.799Z,50.83
2023-03-25T05:55:45.115Z,50.59
2023-03-25T05:56:50.208Z,50.63
2023-03-25T05:57:52.579Z,50.46
2023-03-25T05:58:56.232Z,50.75
2023-03-25T05:59:58.498Z,50.45
2023-03-25T06:01:03.243Z,50.30
2023-03-25T06:02:12.516Z,50.42
2023-03-25T06:03:15.663Z,50.32
2023-03-25T06:04:18.030Z,50.05
2023-03-25T06:05:24.039Z,50.33
2023-03-25T06:06:27.880Z,50.10
2023-03-25T06:07:31.185Z,50.39
2023-03-25T06:08:35.482Z,50.11
2023-03-25T06:09:38.062Z,50.21
2023-03-25T06:10:40.357Z,50.07
2023-03-25T06:11:42.722Z,50.23
2023-03-25T06:12:47.259Z,50.22
2023-03-25T06:13:50.233Z,50.27
2023-03-25T06:14:54.504Z,50.31
2023-03-25T06:15:57.581Z,50.44
2023-03-25T06:16:59.926Z,50.35
2023-03-25T06:18:02.246Z,50.40
2023-03-25T06:19:04.712Z,50.33
2023-03-25T06:20:12.852Z,50.44
2023-03-25T06:21:15.132Z,50.87
2023-03-25T06:22:20.456Z,50.62
2023-03-25T06:23:22.738Z,50.74
2023-03-25T06:24:26.183Z,50.51
2023-03-25T06:25:28.877Z,50.96
2023-03-25T06:26:33.031Z,50.60
2023-03-25T06:27:40.728Z,50.65
2023-03-25T06:28:43.675Z,50.94
2023-03-25T06:29:47.408Z,50.95
2023-03-25T06:30:50.442Z,51.14
2023-03-25T06:31:54.254Z,51.36
2023-03-25T06:32:58.802Z,51.11
2023-03-25T06:34:02.668Z,51.32
2023-03-25T06:35:07.408Z,51.21
2023-03-25T06:36:13.784Z,51.21
2023-03-25T06:37:16.212Z,51.25
2023-03-25T06:38:19.038Z,51.22
2023-03-25T06:39:40.076Z,51.14
2023-03-25T06:40:52.351Z,51.08
2023-03-25T06:41:54.733Z,51.10
2023-03-25T06:43:09.426Z,50.83
2023-03-25T06:44:17.374Z,50.34
2023-03-25T06:45:51.855Z,49.99
2023-03-25T06:47:02.662Z,49.85
2023-03-25T06:48:19.242Z,49.25
2023-03-25T06:49:22.227Z,49.12
2023-03-25T06:50:24.846Z,49.00
2023-03-25T06:51:27.397Z,48.73
2023-03-25T06:52:29.725Z,48.75
2023-03-25T06:53:32.990Z,48.69
2023-03-25T06:54:35.407Z,48.41
2023-03-25T06:55:39.018Z,47.89
2023-03-25T06:56:41.950Z,47.54
2023-03-25T06:57:44.662Z,47.21
2023-03-25T06:58:47.278Z,47.17
2023-03-25T06:59:49.954Z,46.74
2023-03-25T07:00:55.662Z,46.55
2023-03-25T07:01:58.634Z,46.67
2023-03-25T07:03:01.977Z,46.22
2023-03-25T07:04:05.516Z,45.91
2023-03-25T07:05:08.326Z,45.48
2023-03-25T07:06:20.612Z,45.28
2023-03-25T07:07:22.946Z,45.40
2023-03-25T07:08:25.427Z,45.13
2023-03-25T07:09:33.277Z,44.95
2023-03-25T07:10:35.678Z,44.34
2023-03-25T07:11:38.115Z,44.12
2023-03-25T07:12:40.772Z,44.08
2023-03-25T07:13:43.214Z,44.00
2023-03-25T07:14:54.940Z,43.93
2023-03-25T07:16:02.555Z,43.57
2023-03-25T07:17:05.086Z,42.92
2023-03-25T07:18:07.601Z,43.30
2023-03-25T07:19:10.628Z,43.38
2023-03-25T07:20:14.547Z,43.15
2023-03-25T07:21:19.570Z,42.96
2023-03-25T07:22:22.027Z,42.82
2023-03-25T07:23:24.566Z,42.77
2023-03-25T07:24:26.927Z,42.61
2023-03-25T07:25:29.192Z,42.38
2023-03-25T07:26:31.599Z,42.41
2023-03-25T07:27:33.908Z,42.47
2023-03-25T07:28:43.067Z,41.84
2023-03-25T07:29:45.338Z,41.42
2023-03-25T07:30:47.707Z,41.34
2023-03-25T07:31:50.073Z,40.85
2023-03-25T07:32:52.475Z,40.64
2023-03-25T07:33:55.709Z,40.59
2023-03-25T07:34:58.332Z,40.56
2023-03-25T07:36:00.865Z,40.13
2023-03-25T07:37:04.395Z,40.33
2023-03-25T07:38:07.912Z,40.67
2023-03-25T07:39:10.313Z,40.43
2023-03-25T07:40:12.998Z,40.21
2023-03-25T07:41:16.476Z,40.39
2023-03-25T07:42:31.969Z,40.40
2023-03-25T07:43:49.108Z,40.18
2023-03-25T07:45:01.169Z,40.18
2023-03-25T07:46:05.805Z,40.28
2023-03-25T07:47:08.207Z,39.94
2023-03-25T07:48:14.913Z,41.11
2023-03-25T07:49:17.524Z,41.92
2023-03-25T07:50:23.783Z,41.20
2023-03-25T07:51:29.727Z,40.70
2023-03-25T07:52:32.056Z,40.49
2023-03-25T07:53:34.376Z,40.63
2023-03-25T07:54:37.245Z,40.47
2023-03-25T07:55:39.594Z,40.47
2023-03-25T07:56:42.020Z,40.64
2023-03-25T07:57:44.592Z,40.86
2023-03-25T07:58:46.922Z,40.96
2023-03-25T07:59:50.772Z,40.67
2023-03-25T08:00:57.448Z,41.31
2023-03-25T08:01:59.767Z,41.57
2023-03-25T08:03:02.527Z,41.28
2023-03-25T08:04:07.220Z,41.44
2023-03-25T08:05:10.909Z,41.58
2023-03-25T08:06:13.329Z,41.72
2023-03-25T08:07:15.730Z,41.95
2023-03-25T08:08:18.070Z,42.37
2023-03-25T08:09:20.515Z,42.42
2023-03-25T08:10:22.841Z,42.59
2023-03-25T08:11:26.413Z,43.03
2023-03-25T08:12:28.657Z,43.26
2023-03-25T08:13:31.323Z,43.18
2023-03-25T08:14:33.999Z,43.31
2023-03-25T08:15:36.641Z,43.47
2023-03-25T08:16:39.074Z,43.29
2023-03-25T08:17:41.509Z,43.62
2023-03-25T08:18:45.406Z,43.68
2023-03-25T08:19:48.763Z,43.98
2023-03-25T08:20:54.188Z,44.26
2023-03-25T08:21:56.512Z,44.18
2023-03-25T08:22:59.109Z,44.47
2023-03-25T08:24:07.150Z,44.57
2023-03-25T08:25:09.597Z,45.08
2023-03-25T08:26:11.894Z,45.20
2023-03-25T08:27:16.591Z,45.40
2023-03-25T08:28:24.963Z,45.43
2023-03-25T08:29:28.161Z,45.80
2023-03-25T08:30:31.168Z,46.18
2023-03-25T08:31:33.649Z,46.55
2023-03-25T08:32:38.729Z,46.82
2023-03-25T08:33:43.498Z,46.61
2023-03-25T08:34:46.019Z,47.13
2023-03-25T08:35:51.394Z,47.20
2023-03-25T08:36:53.962Z,47.59
2023-03-25T08:37:56.219Z,47.79
2023-03-25T08:38:58.561Z,47.82
2023-03-25T08:40:11.285Z,48.09
2023-03-25T08:41:14.030Z,48.11
2023-03-25T08:42:17.938Z,48.28
2023-03-25T08:43:20.241Z,48.24
2023-03-25T08:44:22.533Z,48.57
2023-03-25T08:45:24.812Z,48.95
2023-03-25T08:46:27.264Z,48.91
2023-03-25T08:47:29.669Z,49.11
2023-03-25T08:48:32.232Z,49.12
2023-03-25T08:49:34.770Z,49.19
2023-03-25T08:50:37.064Z,49.65
2023-03-25T08:51:39.729Z,49.96
2023-03-25T08:52:42.388Z,49.95
2023-03-25T08:53:45.000Z,49.92
2023-03-25T08:54:47.386Z,49.99
2023-03-25T08:56:00.110Z,50.19
2023-03-25T08:57:02.940Z,50.23
2023-03-25T08:58:06.430Z,50.18
2023-03-25T08:59:08.826Z,50.41
2023-03-25T09:00:14.858Z,50.36
2023-03-25T09:01:17.159Z,50.49
2023-03-25T09:02:19.713Z,50.69
2023-03-25T09:03:23.799Z,50.94
2023-03-25T09:04:26.264Z,51.19
2023-03-25T09:05:30.226Z,51.18
2023-03-25T09:06:47.623Z,51.31
2023-03-25T09:07:55.379Z,51.41
2023-03-25T09:09:00.569Z,51.87
2023-03-25T09:10:04.283Z,51.85
2023-03-25T09:11:06.803Z,51.99
2023-03-25T09:12:09.659Z,52.19
2023-03-25T09:13:12.227Z,52.36
2023-03-25T09:14:14.585Z,52.58
2023-03-25T09:15:16.852Z,52.63
2023-03-25T09:16:19.113Z,52.82
2023-03-25T09:17:21.849Z,52.77
2023-03-25T09:18:24.275Z,52.68
2023-03-25T09:19:26.590Z,52.93
2023-03-25T09:20:28.944Z,52.89
2023-03-25T09:21:31.520Z,52.91
2023-03-25T09:22:34.032Z,52.97
2023-03-25T09:23:36.488Z,53.11
2023-03-25T09:24:39.110Z,53.19
2023-03-25T09:25:42.078Z,52.87
2023-03-25T09:26:44.318Z,52.98
2023-03-25T09:27:46.685Z,52.81
2023-03-25T09:28:49.128Z,52.76
2023-03-25T09:29:51.657Z,52.79
2023-03-25T09:30:54.995Z,52.89
2023-03-25T09:31:58.580Z,53.06
2023-03-25T09:33:01.874Z,53.21
2023-03-25T09:34:04.151Z,53.17
2023-03-25T09:35:06.910Z,53.17
2023-03-25T09:36:09.398Z,53.09
2023-03-25T09:37:15.219Z,53.15
2023-03-25T09:38:17.500Z,53.30
2023-03-25T09:39:19.887Z,53.46
2023-03-25T09:40:22.761Z,53.29
2023-03-25T09:41:46.774Z,53.42
2023-03-25T09:42:59.079Z,53.54
2023-03-25T09:44:13.706Z,53.79
2023-03-25T09:45:32.948Z,53.73
2023-03-25T09:46:38.821Z,53.71
2023-03-25T09:48:00.685Z,54.04
2023-03-25T09:49:03.329Z,54.12
2023-03-25T09:50:10.826Z,54.15
2023-03-25T09:51:19.083Z,54.56
2023-03-25T09:52:28.110Z,54.91
2023-03-25T09:53:51.905Z,54.99
2023-03-25T09:54:59.735Z,55.50
2023-03-25T09:56:05.519Z,55.46
2023-03-25T09:57:13.970Z,55.44
2023-03-25T09:58:25.275Z,55.68
2023-03-25T09:59:41.893Z,55.92
2023-03-25T10:00:46.512Z,56.10
2023-03-25T10:02:02.594Z,56.47
2023-03-25T10:03:18.872Z,56.66
2023-03-25T10:04:49.881Z,56.40
2023-03-25T10:06:14.938Z,55.50
2023-03-25T10:07:32.800Z,55.02
2023-03-25T10:09:12.611Z,54.47
2023-03-25T10:10:39.570Z,53.84
2023-03-25T10:12:11.434Z,53.86
2023-03-25T10:13:20.252Z,54.10
2023-03-25T10:14:38.148Z,54.38
2023-03-25T10:16:01.935Z,54.54
2023-03-25T10:17:21.662Z,54.14
2023-03-25T10:19:08.317Z,53.93
2023-03-25T10:20:21.193Z,54.06
2023-03-25T10:22:03.441Z,53.73
2023-03-25T10:23:15.944Z,53.39
2023-03-25T10:24:36.652Z,53.08
2023-03-25T10:25:45.879Z,52.87
2023-03-25T10:26:54.861Z,52.42
2023-03-25T10:27:59.699Z,52.28
2023-03-25T10:29:10.420Z,52.10
2023-03-25T10:30:22.344Z,52.25
2023-03-25T10:31:28.612Z,52.51
2023-03-25T10:32:38.633Z,51.80
2023-03-25T10:33:51.650Z,51.46
2023-03-25T10:34:56.293Z,50.48
2023-03-25T10:36:00.935Z,49.65
2023-03-25T10:37:10.505Z,48.85
2023-03-25T10:38:26.932Z,48.87
2023-03-25T10:39:34.257Z,48.70
2023-03-25T10:40:44.941Z,48.75
2023-03-25T10:41:53.381Z,49.04
2023-03-25T10:43:36.834Z,49.12
2023-03-25T10:44:39.332Z,48.77
2023-03-25T10:45:43.782Z,48.71
2023-03-25T10:46:51.574Z,48.55
2023-03-25T10:47:58.856Z,48.64
2023-03-25T10:49:01.261Z,48.89
2023-03-25T10:50:04.831Z,48.82
2023-03-25T10:51:12.227Z,49.01
2023-03-25T10:52:16.144Z,48.93
2023-03-25T10:53:25.293Z,49.24
2023-03-25T10:54:34.218Z,49.37
2023-03-25T10:55:38.093Z,49.34
2023-03-25T10:56:46.911Z,48.92
2023-03-25T10:57:50.563Z,48.07
2023-03-25T10:58:59.571Z,47.35
2023-03-25T11:00:16.801Z,47.32
2023-03-25T11:01:22.494Z,47.62
2023-03-25T11:02:28.595Z,47.71
2023-03-25T11:03:35.619Z,48.23
2023-03-25T11:04:43.068Z,48.66
2023-03-25T11:05:45.892Z,48.92
2023-03-25T11:06:58.108Z,49.18
2023-03-25T11:08:18.196Z,49.39
2023-03-25T11:09:30.747Z,49.36
2023-03-25T11:10:34.485Z,49.69
2023-03-25T11:11:37.318Z,49.79
2023-03-25T11:12:46.657Z,49.73
2023-03-25T11:13:56.723Z,50.03
2023-03-25T11:15:02.139Z,50.24
2023-03-25T11:16:05.228Z,50.26
2023-03-25T11:17:15.259Z,50.58
2023-03-25T11:18:25.159Z,50.64
2023-03-25T11:19:31.139Z,50.36
2023-03-25T11:20:40.380Z,50.53
2023-03-25T11:21:48.492Z,50.64
2023-03-25T11:22:54.990Z,50.64
2023-03-25T11:24:00.451Z,50.89
2023-03-25T11:25:29.710Z,51.19
2023-03-25T11:26:40.943Z,50.69
2023-03-25T11:27:48.641Z,50.04
2023-03-25T11:28:55.213Z,49.87
2023-03-25T11:30:03.735Z,49.63
2023-03-25T11:31:17.989Z,49.79
2023-03-25T11:32:40.074Z,49.54
2023-03-25T11:33:44.655Z,49.53
2023-03-25T11:34:50.741Z,49.24
2023-03-25T11:35:53.342Z,49.36
2023-03-25T11:37:22.288Z,49.28
2023-03-25T11:38:29.308Z,49.66
2023-03-25T11:39:41.465Z,49.68
2023-03-25T11:40:53.147Z,49.42
2023-03-25T11:41:59.332Z,49.61
2023-03-25T11:43:02.524Z,49.50
2023-03-25T11:44:06.434Z,49.31
2023-03-25T11:45:28.518Z,49.24
2023-03-25T11:46:31.607Z,49.22
2023-03-25T11:47:38.188Z,49.54
2023-03-25T11:48:43.031Z,49.82
2023-03-25T11:49:49.604Z,49.91
2023-03-25T11:51:00.517Z,49.46
2023-03-25T11:52:15.240Z,49.44
2023-03-25T11:53:17.825Z,49.53
2023-03-25T11:54:20.181Z,49.53
2023-03-25T11:55:41.895Z,49.87
2023-03-25T11:56:49.199Z,50.07
2023-03-25T11:57:54.454Z,50.30
2023-03-25T11:59:00.123Z,49.66
2023-03-25T12:00:13.163Z,49.69
2023-03-25T12:01:24.973Z,49.76
2023-03-25T12:02:33.873Z,49.76
2023-03-25T12:03:36.683Z,49.89
2023-03-25T12:04:57.226Z,49.89
2023-03-25T12:06:06.058Z,49.73
2023-03-25T12:07:10.330Z,49.69
2023-03-25T12:08:16.323Z,49.44
2023-03-25T12:09:18.740Z,49.54
2023-03-25T12:10:27.282Z,49.79
2023-03-25T12:11:32.773Z,49.87
2023-03-25T12:12:56.249Z,49.59
2023-03-25T12:14:15.743Z,49.54
2023-03-25T12:15:24.201Z,49.24
2023-03-25T12:16:35.983Z,49.19
2023-03-25T12:18:02.783Z,49.21
2023-03-25T12:19:16.471Z,48.96
2023-03-25T12:20:33.716Z,48.86
2023-03-25T12:22:05.437Z,48.88
2023-03-25T12:23:38.924Z,48.82
2023-03-25T12:24:49.644Z,48.79
2023-03-25T12:26:00.225Z,48.49
2023-03-25T12:27:31.690Z,47.74
2023-03-25T12:29:01.392Z,47.35
2023-03-25T12:30:41.367Z,47.31
2023-03-25T12:31:57.165Z,47.05
2023-03-25T12:33:30.623Z,46.94
2023-03-25T12:34:54.793Z,46.82
2023-03-25T12:36:18.097Z,46.80
2023-03-25T12:37:30.824Z,46.35
2023-03-25T12:39:15.154Z,46.34
2023-03-25T12:40:47.848Z,46.28
2023-03-25T12:42:30.956Z,45.46
2023-03-25T12:44:03.472Z,45.62
2023-03-25T12:45:38.087Z,45.70
2023-03-25T12:46:59.385Z,45.86
2023-03-25T12:48:13.674Z,46.57
2023-03-25T12:49:52.372Z,47.07
2023-03-25T12:51:07.087Z,47.78
2023-03-25T12:52:21.401Z,48.14
2023-03-25T12:54:01.865Z,48.33
2023-03-25T12:55:16.791Z,48.55
2023-03-25T12:56:28.927Z,48.47
2023-03-25T12:57:37.192Z,48.72
2023-03-25T12:59:00.131Z,49.11
2023-03-25T13:00:27.126Z,49.00
2023-03-25T13:01:54.793Z,49.14
2023-03-25T13:03:08.199Z,49.38
2023-03-25T13:04:17.117Z,48.84
2023-03-25T13:05:44.338Z,48.44
2023-03-25T13:06:53.141Z,48.21
2023-03-25T13:08:05.378Z,48.14
2023-03-25T13:09:34.220Z,48.35
2023-03-25T13:10:38.814Z,48.23
2023-03-25T13:11:46.004Z,47.94
2023-03-25T13:12:54.870Z,47.13
2023-03-25T13:14:02.601Z,46.85
2023-03-25T13:15:17.842Z,46.80
2023-03-25T13:16:28.138Z,46.64
2023-03-25T13:17:55.446Z,46.23
2023-03-25T13:19:02.072Z,46.36
2023-03-25T13:20:10.310Z,46.06
2023-03-25T13:21:25.669Z,45.96
2023-03-25T13:22:36.722Z,45.86
2023-03-25T13:23:40.708Z,45.73
2023-03-25T13:24:52.211Z,45.73
2023-03-25T13:25:57.747Z,45.70
2023-03-25T13:27:01.986Z,45.70
2023-03-25T13:28:13.233Z,45.60
2023-03-25T13:29:38.106Z,45.77
2023-03-25T13:30:44.081Z,45.70
2023-03-25T13:31:47.191Z,45.93
2023-03-25T13:32:55.826Z,45.64
2023-03-25T13:34:41.756Z,45.99
2023-03-25T13:35:56.353Z,45.90
2023-03-25T13:37:15.029Z,45.84
2023-03-25T13:38:27.911Z,45.86
2023-03-25T13:39:48.584Z,46.03
2023-03-25T13:41:28.180Z,45.39
2023-03-25T13:42:46.926Z,45.39
2023-03-25T13:44:16.529Z,45.44
2023-03-25T13:45:21.436Z,44.85
2023-03-25T13:46:32.053Z,44.81
2023-03-25T13:47:41.682Z,44.69
2023-03-25T13:49:03.617Z,44.38
2023-03-25T13:50:14.808Z,44.40
2023-03-25T13:51:17.154Z,44.40
2023-03-25T13:52:20.639Z,44.48
2023-03-25T13:53:32.072Z,44.59
2023-03-25T13:54:40.089Z,44.58
2023-03-25T13:55:54.501Z,44.32
2023-03-25T13:57:36.070Z,44.06
2023-03-25T13:58:38.316Z,43.68
2023-03-25T14:00:10.186Z,43.39
2023-03-25T14:01:44.078Z,43.67
2023-03-25T14:03:11.812Z,43.73
2023-03-25T14:04:36.722Z,43.90
2023-03-25T14:06:00.271Z,43.77
2023-03-25T14:07:51.533Z,43.73
2023-03-25T14:09:32.775Z,43.93
2023-03-25T14:10:53.946Z,44.02
2023-03-25T14:12:44.327Z,43.82
2023-03-25T14:13:56.333Z,43.61
2023-03-25T14:15:31.747Z,43.08
2023-03-25T14:16:38.916Z,42.69
2023-03-25T14:17:45.770Z,42.64
2023-03-25T14:18:55.197Z,42.74
2023-03-25T14:20:00.118Z,42.74
2023-03-25T14:21:38.506Z,43.20
2023-03-25T14:22:43.984Z,43.11
2023-03-25T14:23:47.438Z,43.19
2023-03-25T14:24:51.934Z,43.24
2023-03-25T14:26:00.898Z,43.04
2023-03-25T14:27:15.777Z,43.02
2023-03-25T14:28:34.957Z,42.97
2023-03-25T14:29:41.449Z,42.50
2023-03-25T14:30:44.032Z,42.26
2023-03-25T14:32:24.273Z,41.95
2023-03-25T14:33:26.660Z,42.03
2023-03-25T14:34:28.986Z,41.63
2023-03-25T14:35:37.220Z,42.11
2023-03-25T14:36:39.640Z,42.73
2023-03-25T14:37:44.018Z,43.74
2023-03-25T14:38:52.846Z,44.41
2023-03-25T14:40:02.590Z,44.68
2023-03-25T14:41:05.552Z,44.59
2023-03-25T14:42:07.900Z,44.99
2023-03-25T14:43:48.466Z,45.45
2023-03-25T14:44:56.207Z,45.62
2023-03-25T14:46:14.670Z,46.01
2023-03-25T14:47:17.471Z,46.44